Time;durP1;ratioP1;P1;durP2;ratioP2;P2;SDS_P1;SDS_P2;PMS_P1;PMS_P2;Temp;Humidity;BMP_temperature;BMP_pressure;BME280_temperature;BME280_humidity;BME280_pressure;Samples;Min_cycle;Max_cycle;Signal;HPM_P1;HPM_P2
2024/02/03 00:01:27;;;;;;;3.30;0.80;;;11.50;99.90;;;;;;5034519;28;20083;-63
2024/02/03 00:03:54;;;;;;;3.50;0.70;;;11.50;99.90;;;;;;5032496;28;20050;-63
2024/02/03 00:06:21;;;;;;;5.05;0.80;;;11.50;99.90;;;;;;5034100;28;20467;-63
2024/02/03 00:08:48;;;;;;;3.33;0.80;;;11.50;99.90;;;;;;5034399;28;20055;-63
2024/02/03 00:11:15;;;;;;;1.90;0.70;;;11.50;99.90;;;;;;5034052;28;20049;-63
2024/02/03 00:13:42;;;;;;;2.10;0.47;;;11.50;99.90;;;;;;5033730;28;20410;-63
2024/02/03 00:16:09;;;;;;;4.50;1.00;;;11.50;99.90;;;;;;5034362;28;20117;-63
2024/02/03 00:18:39;;;;;;;4.47;1.00;;;11.40;99.90;;;;;;5033970;28;20053;-64
2024/02/03 00:21:06;;;;;;;1.67;0.65;;;11.40;99.90;;;;;;5033719;28;20052;-63
2024/02/03 00:23:33;;;;;;;2.97;0.60;;;11.40;99.90;;;;;;5033550;28;20107;-63
2024/02/03 00:25:59;;;;;;;2.53;0.75;;;11.30;99.90;;;;;;5033677;28;20052;-63
2024/02/03 00:28:26;;;;;;;2.78;0.77;;;11.30;99.90;;;;;;5033645;28;20052;-63
2024/02/03 00:30:53;;;;;;;2.13;0.65;;;11.30;99.90;;;;;;5033623;28;20128;-63
2024/02/03 00:33:20;;;;;;;4.90;1.00;;;11.20;99.90;;;;;;5033665;28;20037;-63
2024/02/03 00:35:47;;;;;;;3.25;0.90;;;11.20;99.90;;;;;;5033445;28;20033;-63
2024/02/03 00:38:14;;;;;;;4.05;0.82;;;11.10;99.90;;;;;;5033713;28;20485;-62
2024/02/03 00:40:40;;;;;;;4.20;0.90;;;11.10;99.90;;;;;;5033715;28;20045;-62
2024/02/03 00:43:07;;;;;;;3.08;0.90;;;11.10;99.90;;;;;;5033845;28;20045;-64
2024/02/03 00:45:34;;;;;;;3.90;0.85;;;11.10;99.90;;;;;;5033415;28;20099;-64
2024/02/03 00:48:01;;;;;;;4.05;0.80;;;11.00;99.90;;;;;;5032565;28;20060;-65
2024/02/03 00:50:28;;;;;;;2.38;0.70;;;11.00;99.90;;;;;;5033447;28;20371;-64
2024/02/03 00:52:54;;;;;;;3.33;0.90;;;11.00;99.90;;;;;;5033372;28;20050;-65
2024/02/03 00:55:21;;;;;;;3.95;0.80;;;10.90;99.90;;;;;;5032283;28;20156;-65
2024/02/03 00:57:48;;;;;;;3.35;0.73;;;10.90;99.90;;;;;;5032924;28;20550;-65
2024/02/03 01:00:15;;;;;;;5.72;0.90;;;10.90;99.90;;;;;;5033028;28;20116;-65
2024/02/03 01:02:42;;;;;;;1.90;0.70;;;10.90;99.90;;;;;;5032987;28;20478;-66
2024/02/03 01:05:09;;;;;;;2.15;0.70;;;10.80;99.90;;;;;;5021070;28;20096;-64
2024/02/03 01:07:36;;;;;;;5.07;1.05;;;10.80;99.90;;;;;;5033236;28;20095;-65
2024/02/03 01:10:03;;;;;;;3.72;0.93;;;10.80;99.90;;;;;;5032938;28;20045;-65
2024/02/03 01:12:29;;;;;;;2.53;0.70;;;10.70;99.90;;;;;;5031534;28;20049;-64
2024/02/03 01:14:56;;;;;;;3.85;0.77;;;10.70;99.90;;;;;;5033310;28;20132;-66
2024/02/03 01:17:23;;;;;;;2.30;1.00;;;10.70;99.90;;;;;;5033258;28;20038;-65
2024/02/03 01:19:50;;;;;;;2.33;0.80;;;10.70;99.90;;;;;;5033348;28;20034;-65
2024/02/03 01:22:17;;;;;;;4.65;1.30;;;10.70;99.90;;;;;;5032958;28;20046;-65
2024/02/03 01:24:44;;;;;;;3.40;0.88;;;10.70;99.90;;;;;;5033052;28;20493;-65
2024/02/03 01:27:11;;;;;;;2.55;0.88;;;10.60;99.90;;;;;;5033192;28;20037;-65
2024/02/03 01:29:38;;;;;;;2.53;0.70;;;10.60;99.90;;;;;;5033211;28;20111;-65
2024/02/03 01:32:04;;;;;;;3.53;1.00;;;10.60;99.90;;;;;;5033301;28;20056;-65
2024/02/03 01:34:31;;;;;;;4.53;0.88;;;10.60;99.90;;;;;;5033010;28;20048;-65
2024/02/03 01:36:58;;;;;;;4.15;0.90;;;10.60;99.90;;;;;;5033315;28;20050;-65
2024/02/03 01:39:25;;;;;;;3.83;0.90;;;10.60;99.90;;;;;;5032756;28;20033;-63
2024/02/03 01:41:52;;;;;;;5.40;1.13;;;10.60;99.90;;;;;;5032877;28;20037;-63
2024/02/03 01:44:18;;;;;;;2.97;0.77;;;10.50;99.90;;;;;;5033108;28;20056;-63
2024/02/03 01:46:45;;;;;;;2.13;0.90;;;10.50;99.90;;;;;;5032858;28;20418;-63
2024/02/03 01:49:12;;;;;;;2.60;0.93;;;10.60;99.90;;;;;;5032608;28;20072;-63
2024/02/03 01:51:39;;;;;;;4.05;0.88;;;10.50;99.90;;;;;;5032554;28;20128;-63
2024/02/03 01:54:06;;;;;;;3.60;1.00;;;10.50;99.90;;;;;;5032938;28;20100;-63
2024/02/03 01:56:34;;;;;;;4.70;1.05;;;10.60;99.90;;;;;;5032917;28;20042;-63
2024/02/03 01:59:01;;;;;;;3.75;0.80;;;10.60;99.90;;;;;;5032903;28;20043;-64
2024/02/03 02:01:28;;;;;;;2.63;0.70;;;10.60;99.90;;;;;;5032910;28;20077;-64
2024/02/03 02:03:55;;;;;;;2.60;1.10;;;10.60;99.90;;;;;;5032513;28;20398;-64
2024/02/03 02:06:22;;;;;;;3.60;0.98;;;10.70;99.90;;;;;;5034176;28;20103;-64
2024/02/03 02:08:49;;;;;;;3.97;1.10;;;10.70;99.90;;;;;;5018895;28;20368;-64
2024/02/03 02:11:16;;;;;;;3.70;0.90;;;10.80;99.90;;;;;;5036509;28;20072;-64
2024/02/03 02:13:43;;;;;;;4.05;1.17;;;10.90;99.90;;;;;;5035679;28;20136;-64
2024/02/03 02:16:09;;;;;;;5.78;0.90;;;10.90;99.90;;;;;;5036122;28;20046;-64
2024/02/03 02:18:36;;;;;;;4.07;0.85;;;11.00;99.90;;;;;;5036452;28;20101;-64
2024/02/03 02:21:03;;;;;;;6.22;1.00;;;11.00;99.90;;;;;;5035966;28;20037;-64
2024/02/03 02:23:30;;;;;;;7.30;1.13;;;11.10;99.90;;;;;;5036332;28;20056;-64
2024/02/03 02:25:57;;;;;;;4.22;0.98;;;11.10;99.90;;;;;;5035928;28;20103;-64
2024/02/03 02:28:24;;;;;;;3.45;1.02;;;11.00;99.90;;;;;;5034939;28;20064;-64
2024/02/03 02:30:51;;;;;;;6.32;0.90;;;11.00;99.90;;;;;;5035747;28;20033;-64
2024/02/03 02:33:18;;;;;;;2.53;0.70;;;10.90;99.90;;;;;;5035955;28;20041;-64
2024/02/03 02:35:49;;;;;;;4.70;1.20;;;10.90;99.90;;;;;;5035800;28;20099;-65
2024/02/03 02:38:16;;;;;;;5.00;1.00;;;10.80;99.90;;;;;;5035976;28;20049;-64
2024/02/03 02:40:43;;;;;;;4.85;0.93;;;10.80;99.90;;;;;;5036211;28;20068;-64
2024/02/03 02:43:10;;;;;;;2.88;0.80;;;10.90;99.90;;;;;;5035962;28;20359;-64
2024/02/03 02:45:36;;;;;;;3.55;0.70;;;10.90;99.90;;;;;;5035879;28;20474;-64
2024/02/03 02:48:03;;;;;;;3.88;0.73;;;10.90;99.90;;;;;;5035212;28;20045;-64
2024/02/03 02:50:30;;;;;;;3.38;0.98;;;10.90;99.90;;;;;;5035591;28;20486;-64
2024/02/03 02:52:57;;;;;;;3.20;0.85;;;10.90;99.90;;;;;;5035648;28;20112;-63
2024/02/03 02:55:24;;;;;;;3.45;0.98;;;10.80;99.90;;;;;;5035189;28;20045;-63
2024/02/03 02:57:51;;;;;;;3.42;0.82;;;10.80;99.90;;;;;;5034410;28;20045;-63
2024/02/03 03:00:17;;;;;;;4.18;1.00;;;10.90;99.90;;;;;;5034374;28;20111;-62
2024/02/03 03:02:45;;;;;;;3.85;1.05;;;10.80;99.90;;;;;;5034051;28;20478;-63
2024/02/03 03:05:11;;;;;;;4.78;1.02;;;10.70;99.90;;;;;;5035171;28;20053;-63
2024/02/03 03:07:40;;;;;;;3.67;1.00;;;10.70;99.90;;;;;;5035394;28;20045;-63
2024/02/03 03:10:07;;;;;;;2.97;0.95;;;10.70;99.90;;;;;;5033843;28;20073;-63
2024/02/03 03:12:34;;;;;;;3.75;0.95;;;10.80;99.90;;;;;;5035168;28;20462;-63
2024/02/03 03:15:01;;;;;;;2.75;0.85;;;10.80;99.90;;;;;;5034861;28;20045;-63
2024/02/03 03:17:28;;;;;;;4.63;0.82;;;10.90;99.90;;;;;;5033898;28;20038;-63
2024/02/03 03:19:55;;;;;;;4.03;1.08;;;10.90;99.90;;;;;;5035226;28;20076;-63
2024/02/03 03:22:22;;;;;;;3.60;0.90;;;11.00;99.90;;;;;;5035171;28;20037;-65
2024/02/03 03:24:48;;;;;;;3.67;0.80;;;11.00;99.90;;;;;;5034841;28;20115;-64
2024/02/03 03:27:15;;;;;;;2.40;0.80;;;11.00;99.90;;;;;;5034920;28;20398;-64
2024/02/03 03:29:43;;;;;;;3.38;0.73;;;11.10;99.90;;;;;;5034643;28;20094;-64
2024/02/03 03:32:10;;;;;;;4.63;0.95;;;11.10;99.90;;;;;;5034875;28;20107;-64
2024/02/03 03:34:37;;;;;;;5.30;0.93;;;11.10;99.90;;;;;;5034740;28;20041;-65
2024/02/03 03:37:04;;;;;;;5.05;1.00;;;11.10;99.90;;;;;;5035040;28;20467;-65
2024/02/03 03:39:31;;;;;;;4.22;0.82;;;11.20;99.90;;;;;;5034731;28;20497;-64
2024/02/03 03:41:58;;;;;;;3.55;1.02;;;11.20;99.90;;;;;;5034576;28;20103;-64
2024/02/03 03:44:24;;;;;;;4.18;1.20;;;11.20;99.90;;;;;;5034573;28;20103;-65
2024/02/03 03:46:51;;;;;;;4.28;0.85;;;11.20;99.90;;;;;;5034526;28;20057;-64
2024/02/03 03:49:18;;;;;;;6.60;1.17;;;11.20;99.90;;;;;;5034511;28;20056;-65
2024/02/03 03:51:45;;;;;;;3.70;1.10;;;11.20;99.90;;;;;;5034144;28;20108;-64
2024/02/03 03:54:12;;;;;;;4.32;1.08;;;11.20;99.90;;;;;;5034335;28;20425;-65
2024/02/03 03:56:39;;;;;;;5.97;1.60;;;11.20;99.90;;;;;;5034658;28;20546;-64
2024/02/03 03:59:06;;;;;;;6.43;1.45;;;11.30;99.90;;;;;;5034170;28;20045;-64
2024/02/03 04:01:33;;;;;;;4.68;1.15;;;11.30;99.90;;;;;;5034451;28;20352;-65
2024/02/03 04:03:59;;;;;;;3.78;1.42;;;11.30;99.90;;;;;;5033971;28;20041;-64
2024/02/03 04:06:26;;;;;;;6.57;1.40;;;11.30;99.90;;;;;;5034231;28;20042;-65
2024/02/03 04:08:53;;;;;;;6.30;1.60;;;11.30;99.90;;;;;;5034059;28;20471;-64
2024/02/03 04:11:20;;;;;;;7.72;1.60;;;11.30;99.90;;;;;;5034351;28;20045;-64
2024/02/03 04:13:48;;;;;;;5.30;1.00;;;11.30;99.90;;;;;;5033933;28;20569;-65
2024/02/03 04:16:15;;;;;;;3.63;1.00;;;11.30;99.90;;;;;;5034072;28;20044;-65
2024/02/03 04:18:41;;;;;;;4.80;1.20;;;11.30;99.90;;;;;;5033686;28;20411;-64
2024/02/03 04:21:08;;;;;;;3.90;1.02;;;11.30;99.90;;;;;;5033816;28;20127;-65
2024/02/03 04:23:35;;;;;;;8.25;1.10;;;11.30;99.90;;;;;;5034109;28;20086;-64
2024/02/03 04:26:03;;;;;;;5.60;1.20;;;11.30;99.90;;;;;;5033871;28;20128;-65
2024/02/03 04:28:29;;;;;;;3.92;1.40;;;11.30;99.90;;;;;;5034209;28;20434;-65
2024/02/03 04:30:58;;;;;;;4.00;1.02;;;11.40;99.90;;;;;;5033797;28;20042;-64
2024/02/03 04:33:25;;;;;;;4.25;1.13;;;11.40;99.90;;;;;;5034000;28;20045;-64
2024/02/03 04:35:52;;;;;;;3.65;0.75;;;11.30;99.90;;;;;;5033634;28;20041;-65
2024/02/03 04:38:19;;;;;;;2.83;0.75;;;11.30;99.90;;;;;;5033440;28;20394;-64
2024/02/03 04:40:46;;;;;;;5.97;0.98;;;11.40;99.90;;;;;;5033624;28;20378;-65
2024/02/03 04:43:12;;;;;;;5.00;1.00;;;11.40;99.90;;;;;;5033600;28;20418;-65
2024/02/03 04:45:39;;;;;;;4.03;1.42;;;11.40;99.90;;;;;;5033603;28;20040;-63
2024/02/03 04:48:06;;;;;;;3.60;0.88;;;11.40;99.90;;;;;;5033776;28;20045;-64
2024/02/03 04:50:34;;;;;;;5.47;1.20;;;11.40;99.90;;;;;;5033607;28;20111;-64
2024/02/03 04:53:00;;;;;;;4.40;1.00;;;11.40;99.90;;;;;;5032696;28;20044;-64
2024/02/03 04:55:27;;;;;;;2.67;0.88;;;11.40;99.90;;;;;;5033463;28;20096;-64
2024/02/03 04:57:54;;;;;;;3.85;1.00;;;11.40;99.90;;;;;;5033389;28;20517;-64
2024/02/03 05:00:21;;;;;;;3.63;1.00;;;11.40;99.90;;;;;;5032427;28;20128;-64
2024/02/03 05:02:48;;;;;;;3.65;1.05;;;11.40;99.90;;;;;;5033308;28;20052;-64
2024/02/03 05:05:15;;;;;;;5.47;1.20;;;11.40;99.90;;;;;;5033665;28;20475;-64
2024/02/03 05:07:44;;;;;;;3.85;1.17;;;11.40;99.90;;;;;;5033672;28;20045;-64
2024/02/03 05:10:11;;;;;;;3.22;1.00;;;11.40;99.90;;;;;;5033549;28;20141;-64
2024/02/03 05:12:38;;;;;;;3.05;1.05;;;11.40;99.90;;;;;;5033210;28;20042;-64
2024/02/03 05:15:05;;;;;;;5.35;1.10;;;11.40;99.90;;;;;;5031915;28;20049;-64
2024/02/03 05:17:32;;;;;;;5.40;1.05;;;11.40;99.90;;;;;;5033426;28;20041;-64
2024/02/03 05:19:59;;;;;;;5.13;1.20;;;11.40;99.90;;;;;;5032208;28;20041;-64
2024/02/03 05:22:25;;;;;;;7.75;1.33;;;11.40;99.90;;;;;;5033146;28;20103;-64
2024/02/03 05:24:52;;;;;;;5.90;0.95;;;11.40;99.90;;;;;;5033169;28;20426;-64
2024/02/03 05:27:19;;;;;;;7.45;1.38;;;11.40;99.90;;;;;;5033423;28;20041;-64
2024/02/03 05:29:46;;;;;;;6.10;1.20;;;11.40;99.90;;;;;;5033052;28;20491;-64
2024/02/03 05:32:13;;;;;;;6.43;1.63;;;11.40;99.90;;;;;;5032981;28;20055;-64
2024/02/03 05:34:40;;;;;;;4.85;1.00;;;11.40;99.90;;;;;;5032995;28;20049;-64
2024/02/03 05:37:07;;;;;;;4.25;1.00;;;11.40;99.90;;;;;;5033176;28;20425;-64
2024/02/03 05:39:33;;;;;;;4.88;1.50;;;11.40;99.90;;;;;;5033070;28;20045;-64
2024/02/03 05:42:00;;;;;;;4.75;1.33;;;11.40;99.90;;;;;;5035335;28;20041;-64
2024/02/03 05:44:27;;;;;;;6.70;1.70;;;11.40;99.90;;;;;;5036912;28;20049;-64
2024/02/03 05:46:54;;;;;;;5.90;1.25;;;11.40;99.90;;;;;;5036861;28;20049;-63
2024/02/03 05:49:21;;;;;;;3.95;1.00;;;11.40;99.90;;;;;;5036740;28;20056;-63
2024/02/03 05:51:47;;;;;;;4.35;0.85;;;11.40;99.90;;;;;;5036589;28;20048;-63
2024/02/03 05:54:15;;;;;;;7.32;1.00;;;11.40;99.90;;;;;;5036600;28;20107;-63
2024/02/03 05:56:41;;;;;;;4.88;0.93;;;11.40;99.90;;;;;;5036900;28;20044;-63
2024/02/03 05:59:08;;;;;;;7.95;1.20;;;11.40;99.90;;;;;;5036579;28;20041;-63
2024/02/03 06:01:55;;;;;;;6.20;1.20;;;11.40;99.90;;;;;;5036351;28;20080;-63
2024/02/03 06:04:25;;;;;;;4.30;1.17;;;11.40;99.90;;;;;;5036279;28;20049;-63
2024/02/03 06:06:52;;;;;;;4.38;1.30;;;11.40;99.90;;;;;;5036405;28;20080;-63
2024/02/03 06:09:19;;;;;;;3.83;1.33;;;11.40;99.90;;;;;;5036329;28;20049;-63
2024/02/03 06:11:45;;;;;;;2.28;0.60;;;11.40;99.90;;;;;;5036322;28;20378;-63
2024/02/03 06:14:12;;;;;;;3.58;0.47;;;11.40;99.90;;;;;;5036267;28;20073;-63
2024/02/03 06:16:40;;;;;;;3.38;0.60;;;11.40;99.90;;;;;;5036398;28;20041;-63
2024/02/03 06:19:07;;;;;;;2.47;0.70;;;11.40;99.90;;;;;;5036520;28;20048;-63
2024/02/03 06:21:33;;;;;;;3.03;0.75;;;11.40;99.90;;;;;;5036318;28;20095;-63
2024/02/03 06:24:00;;;;;;;4.93;0.75;;;11.40;99.90;;;;;;5036348;28;20410;-63
2024/02/03 06:26:31;;;;;;;2.90;0.90;;;11.40;99.90;;;;;;5036210;28;20064;-63
2024/02/03 06:28:58;;;;;;;3.47;0.93;;;11.30;99.90;;;;;;5036281;28;20103;-63
2024/02/03 06:31:25;;;;;;;5.15;0.88;;;11.40;99.90;;;;;;5036079;28;20041;-65
2024/02/03 06:33:52;;;;;;;3.40;0.60;;;11.40;99.90;;;;;;5036090;28;20112;-65
2024/02/03 06:36:18;;;;;;;2.58;0.70;;;11.40;99.90;;;;;;5035996;28;20041;-64
2024/02/03 06:38:45;;;;;;;3.15;0.85;;;11.40;99.90;;;;;;5035973;28;20041;-65
2024/02/03 06:41:16;;;;;;;3.80;0.63;;;11.40;99.90;;;;;;5035932;28;20041;-66
2024/02/03 06:43:43;;;;;;;2.97;0.93;;;11.40;99.90;;;;;;5035444;28;20124;-65
2024/02/03 06:46:10;;;;;;;1.85;0.52;;;11.40;99.90;;;;;;5035545;28;20124;-65
2024/02/03 06:48:37;;;;;;;3.72;0.80;;;11.40;99.90;;;;;;5035946;28;20040;-65
2024/02/03 06:51:04;;;;;;;4.90;0.80;;;11.40;99.90;;;;;;5035643;28;20459;-66
2024/02/03 06:53:31;;;;;;;3.13;0.73;;;11.40;99.90;;;;;;5034629;28;20084;-64
2024/02/03 06:55:57;;;;;;;3.10;0.80;;;11.40;99.90;;;;;;5035694;28;20390;-64
2024/02/03 06:58:24;;;;;;;3.17;1.42;;;11.40;99.90;;;;;;5035635;28;20482;-64
2024/02/03 07:00:51;;;;;;;2.88;0.70;;;11.30;99.90;;;;;;5035478;28;20042;-64
2024/02/03 07:03:18;;;;;;;3.58;0.80;;;11.30;99.90;;;;;;5035411;28;20045;-64
2024/02/03 07:05:44;;;;;;;2.28;0.70;;;11.30;99.90;;;;;;5035408;28;20435;-64
2024/02/03 07:08:11;;;;;;;4.03;0.95;;;11.30;99.90;;;;;;5035341;28;20068;-64
2024/02/03 07:10:38;;;;;;;3.28;0.80;;;11.40;99.90;;;;;;5035383;28;20048;-64
2024/02/03 07:13:05;;;;;;;4.13;1.00;;;11.40;99.90;;;;;;5035281;28;20048;-65
2024/02/03 07:15:32;;;;;;;4.32;1.02;;;11.30;99.90;;;;;;5035159;28;20414;-65
2024/02/03 07:17:58;;;;;;;2.75;0.70;;;11.40;99.90;;;;;;5035096;28;20481;-64
2024/02/03 07:20:25;;;;;;;4.80;0.82;;;11.40;99.90;;;;;;5035110;28;20052;-65
2024/02/03 07:22:52;;;;;;;2.80;0.85;;;11.40;99.90;;;;;;5035259;28;20163;-64
2024/02/03 07:25:19;;;;;;;4.10;1.00;;;11.40;99.90;;;;;;5035109;28;20050;-64
2024/02/03 07:27:46;;;;;;;4.70;0.98;;;11.40;99.90;;;;;;5035110;28;20052;-64
2024/02/03 07:30:12;;;;;;;2.83;0.75;;;11.40;99.90;;;;;;5035030;28;20049;-64
2024/02/03 07:32:39;;;;;;;3.15;0.85;;;11.40;99.90;;;;;;5034663;28;20115;-64
2024/02/03 07:35:06;;;;;;;4.15;0.90;;;11.40;99.90;;;;;;5034698;28;20060;-64
2024/02/03 07:37:33;;;;;;;5.65;1.20;;;11.40;99.90;;;;;;5034781;28;20057;-63
2024/02/03 07:40:00;;;;;;;3.35;0.95;;;11.40;99.90;;;;;;5034814;28;20108;-64
2024/02/03 07:42:27;;;;;;;7.22;0.77;;;11.40;99.90;;;;;;5034744;28;20532;-64
2024/02/03 07:44:54;;;;;;;5.22;1.30;;;11.30;99.90;;;;;;5033550;28;20133;-64
2024/02/03 07:47:21;;;;;;;7.10;1.35;;;11.30;99.90;;;;;;5034564;28;20038;-64
2024/02/03 07:49:47;;;;;;;6.68;1.30;;;11.30;99.90;;;;;;5034607;28;20045;-64
2024/02/03 07:52:14;;;;;;;7.10;1.00;;;11.30;99.90;;;;;;5034564;28;20390;-63
2024/02/03 07:54:41;;;;;;;5.60;1.10;;;11.30;99.90;;;;;;5034502;28;20873;-63
2024/02/03 07:57:08;;;;;;;3.97;0.93;;;11.30;99.90;;;;;;5034568;28;20034;-62
2024/02/03 07:59:35;;;;;;;7.38;1.00;;;11.30;99.90;;;;;;5033170;28;20033;-62
2024/02/03 08:02:03;;;;;;;3.80;1.02;;;11.30;99.90;;;;;;5034184;28;20095;-61
2024/02/03 08:04:29;;;;;;;4.90;1.05;;;11.40;99.90;;;;;;5033984;28;20463;-62
2024/02/03 08:06:56;;;;;;;6.78;1.60;;;11.30;99.90;;;;;;5034362;28;20072;-62
2024/02/03 08:09:26;;;;;;;6.03;1.00;;;11.40;99.90;;;;;;5032739;28;20521;-62
2024/02/03 08:11:53;;;;;;;4.60;1.10;;;11.50;99.90;;;;;;5033949;28;20099;-62
2024/02/03 08:14:20;;;;;;;4.00;0.85;;;11.50;99.90;;;;;;5033652;28;20045;-62
2024/02/03 08:16:47;;;;;;;4.78;1.00;;;11.50;99.90;;;;;;5034137;28;20034;-62
2024/02/03 08:19:14;;;;;;;6.53;1.17;;;11.50;99.90;;;;;;5033910;28;20422;-62
2024/02/03 08:21:41;;;;;;;4.55;0.88;;;11.60;99.90;;;;;;5033851;28;20120;-62
2024/02/03 08:24:07;;;;;;;4.72;0.95;;;11.60;99.90;;;;;;5033841;28;20041;-62
2024/02/03 08:26:34;;;;;;;6.90;1.55;;;11.60;99.90;;;;;;5033983;28;20033;-62
2024/02/03 08:29:01;;;;;;;4.65;0.90;;;11.60;99.90;;;;;;5032386;28;20483;-62
2024/02/03 08:31:28;;;;;;;4.15;1.25;;;11.60;99.90;;;;;;5034020;28;20045;-62
2024/02/03 08:33:54;;;;;;;3.88;0.88;;;11.60;99.90;;;;;;5033732;28;20049;-62
2024/02/03 08:36:22;;;;;;;4.55;1.00;;;11.60;99.90;;;;;;5033754;28;20037;-62
2024/02/03 08:38:49;;;;;;;6.30;1.13;;;11.70;99.90;;;;;;5033785;28;20052;-62
2024/02/03 08:41:16;;;;;;;5.30;1.10;;;11.70;99.90;;;;;;5033528;28;20437;-62
2024/02/03 08:43:43;;;;;;;4.78;1.08;;;11.70;99.90;;;;;;5033518;28;20136;-62
2024/02/03 08:46:10;;;;;;;5.72;1.58;;;11.80;99.90;;;;;;5033927;28;20120;-62
2024/02/03 08:48:36;;;;;;;4.32;1.17;;;11.80;99.90;;;;;;5033326;28;20045;-62
2024/02/03 08:51:03;;;;;;;6.07;1.42;;;11.80;99.90;;;;;;5033418;28;20060;-62
2024/02/03 08:53:30;;;;;;;4.30;1.23;;;11.90;99.90;;;;;;5033332;28;20042;-62
2024/02/03 08:55:57;;;;;;;4.82;1.20;;;11.80;99.90;;;;;;5033545;28;20042;-62
2024/02/03 08:58:24;;;;;;;4.95;1.08;;;11.90;99.90;;;;;;5033378;28;20375;-62
2024/02/03 09:00:50;;;;;;;5.75;1.23;;;11.90;99.90;;;;;;5032254;28;20125;-62
2024/02/03 09:03:17;;;;;;;7.25;1.48;;;11.90;99.90;;;;;;5033017;28;20132;-62
2024/02/03 09:05:44;;;;;;;4.88;1.48;;;11.90;99.90;;;;;;5033319;28;20042;-62
2024/02/03 09:08:11;;;;;;;5.68;1.30;;;11.90;99.90;;;;;;5032954;28;20502;-62
2024/02/03 09:10:38;;;;;;;3.53;1.10;;;11.90;99.90;;;;;;5033173;28;20045;-62
2024/02/03 09:13:04;;;;;;;4.70;1.17;;;12.00;99.90;;;;;;5033073;28;20371;-63
2024/02/03 09:15:31;;;;;;;5.32;1.10;;;12.00;99.90;;;;;;5033553;28;20140;-63
2024/02/03 09:17:58;;;;;;;5.50;1.25;;;12.00;99.90;;;;;;5037445;28;20120;-62
2024/02/03 09:20:25;;;;;;;8.68;1.45;;;12.00;99.90;;;;;;5036374;28;20132;-62
2024/02/03 09:22:52;;;;;;;5.40;1.13;;;12.10;99.90;;;;;;5037153;28;20053;-62
2024/02/03 09:25:18;;;;;;;6.43;1.27;;;12.10;99.90;;;;;;5037309;28;20137;-62
2024/02/03 09:27:45;;;;;;;6.15;1.10;;;12.10;99.90;;;;;;5036956;28;20045;-62
2024/02/03 09:30:12;;;;;;;4.00;1.10;;;12.10;99.90;;;;;;5037290;28;20049;-62
2024/02/03 09:32:39;;;;;;;6.40;1.48;;;12.20;99.90;;;;;;5036005;28;20037;-62
2024/02/03 09:35:07;;;;;;;5.03;1.10;;;12.20;99.90;;;;;;5036993;28;20073;-62
2024/02/03 09:37:34;;;;;;;4.03;1.00;;;12.20;99.90;;;;;;5036964;28;20072;-63
2024/02/03 09:40:03;;;;;;;5.13;1.13;;;12.20;99.90;;;;;;5037178;28;20068;-62
2024/02/03 09:42:30;;;;;;;5.38;0.90;;;12.20;99.90;;;;;;5036627;28;20041;-62
2024/02/03 09:44:57;;;;;;;4.07;1.02;;;12.20;99.90;;;;;;5036619;28;20467;-64
2024/02/03 09:47:29;;;;;;;4.50;1.35;;;12.20;99.90;;;;;;5025198;28;20041;-64
2024/02/03 09:49:56;;;;;;;7.63;1.48;;;12.20;99.90;;;;;;5016670;28;20054;-65
2024/02/03 09:52:23;;;;;;;6.03;1.42;;;12.20;99.90;;;;;;5028141;28;20041;-65
2024/02/03 09:54:50;;;;;;;5.32;1.23;;;12.20;99.90;;;;;;5036238;28;20048;-65
2024/02/03 09:57:17;;;;;;;4.45;1.20;;;12.20;99.90;;;;;;5036787;28;20065;-64
2024/02/03 09:59:44;;;;;;;6.90;1.17;;;12.20;99.90;;;;;;5036412;28;20049;-64
2024/02/03 10:02:10;;;;;;;4.75;1.50;;;12.20;99.90;;;;;;5026804;28;20034;-65
2024/02/03 10:04:38;;;;;;;5.38;1.30;;;12.20;99.90;;;;;;5016516;28;20089;-65
2024/02/03 10:07:06;;;;;;;5.13;1.17;;;12.20;99.90;;;;;;5016697;28;20038;-65
2024/02/03 10:09:32;;;;;;;3.08;1.15;;;12.20;99.90;;;;;;5016416;28;20487;-64
2024/02/03 10:12:19;;;;;;;5.93;1.77;;;12.20;99.90;;;;;;5016323;28;20038;-63
2024/02/03 10:14:48;;;;;;;5.93;1.30;;;12.30;99.90;;;;;;5014525;28;20085;-63
2024/02/03 10:17:15;;;;;;;5.63;1.40;;;12.30;99.90;;;;;;5015285;28;20053;-63
2024/02/03 10:19:41;;;;;;;4.00;1.02;;;12.30;99.90;;;;;;5016018;28;20034;-62
2024/02/03 10:22:08;;;;;;;5.60;1.60;;;12.40;99.90;;;;;;5016161;28;20042;-62
2024/02/03 10:24:35;;;;;;;3.92;1.27;;;12.40;99.90;;;;;;5016048;28;20049;-62
2024/02/03 10:27:02;;;;;;;4.70;1.23;;;12.40;99.90;;;;;;5015994;28;20046;-63
2024/02/03 10:29:29;;;;;;;5.80;1.25;;;12.40;99.90;;;;;;5016265;28;20046;-64
2024/02/03 10:31:55;;;;;;;3.65;1.00;;;12.40;99.90;;;;;;5034087;28;20037;-63
2024/02/03 10:34:22;;;;;;;3.40;1.20;;;12.40;99.90;;;;;;5055685;28;20029;-64
2024/02/03 10:36:49;;;;;;;5.45;1.95;;;12.40;99.90;;;;;;5055637;28;20033;-63
2024/02/03 10:39:16;;;;;;;5.28;1.20;;;12.40;99.90;;;;;;5055332;28;20064;-63
2024/02/03 10:41:43;;;;;;;5.63;1.25;;;12.40;99.90;;;;;;5055529;28;20037;-63
2024/02/03 10:44:11;;;;;;;5.38;1.27;;;12.40;99.90;;;;;;5055641;28;20457;-62
2024/02/03 10:46:37;;;;;;;4.53;1.35;;;12.50;99.90;;;;;;5054318;28;20037;-62
2024/02/03 10:49:04;;;;;;;4.90;1.13;;;12.50;99.90;;;;;;5055755;28;20159;-62
2024/02/03 10:51:31;;;;;;;7.53;1.40;;;12.50;99.90;;;;;;5054495;28;20503;-62
2024/02/03 10:53:58;;;;;;;9.75;1.48;;;12.50;99.90;;;;;;5055190;28;20032;-63
2024/02/03 10:56:28;;;;;;;7.63;1.35;;;12.50;99.90;;;;;;5055511;28;20040;-63
2024/02/03 10:58:55;;;;;;;5.47;1.52;;;12.50;99.90;;;;;;5055267;28;20052;-63
2024/02/03 11:01:25;;;;;;;5.05;1.20;;;12.60;99.90;;;;;;5054302;28;20045;-63
2024/02/03 11:03:51;;;;;;;9.15;1.50;;;12.50;99.90;;;;;;5055150;28;20040;-63
2024/02/03 11:06:18;;;;;;;5.40;0.90;;;12.60;99.90;;;;;;5055035;28;20127;-63
2024/02/03 11:08:45;;;;;;;4.57;1.30;;;12.60;99.90;;;;;;5055457;28;20045;-63
2024/02/03 11:11:12;;;;;;;7.13;1.35;;;12.70;99.90;;;;;;5055095;28;20483;-63
2024/02/03 11:13:39;;;;;;;5.32;1.38;;;12.60;99.90;;;;;;5054515;28;20056;-63
2024/02/03 11:16:06;;;;;;;4.78;1.20;;;12.70;99.90;;;;;;5055178;28;20045;-63
2024/02/03 11:18:33;;;;;;;6.07;1.30;;;12.70;99.90;;;;;;5055124;28;20116;-63
2024/02/03 11:20:59;;;;;;;4.03;1.20;;;12.80;99.90;;;;;;5041857;28;20037;-62
2024/02/03 11:23:26;;;;;;;6.20;1.40;;;12.80;99.90;;;;;;5034848;28;20494;-62
2024/02/03 11:25:55;;;;;;;4.93;1.30;;;12.80;99.90;;;;;;5035263;28;20124;-61
2024/02/03 11:28:22;;;;;;;7.43;1.13;;;12.80;99.90;;;;;;5032678;28;20052;-63
2024/02/03 11:30:48;;;;;;;4.63;1.10;;;12.90;99.90;;;;;;5034296;28;20049;-62
2024/02/03 11:33:15;;;;;;;3.75;1.20;;;12.90;99.90;;;;;;5034783;28;20494;-61
2024/02/03 11:35:43;;;;;;;4.95;1.17;;;13.00;99.90;;;;;;5034201;28;20103;-62
2024/02/03 11:38:12;;;;;;;3.78;0.80;;;13.00;99.90;;;;;;5033307;28;20033;-62
2024/02/03 11:40:39;;;;;;;3.40;1.08;;;13.10;99.90;;;;;;5033356;28;20471;-62
2024/02/03 11:43:06;;;;;;;4.95;1.20;;;13.20;99.90;;;;;;5034798;28;20050;-63
2024/02/03 11:45:33;;;;;;;3.92;1.20;;;13.20;99.90;;;;;;5032490;28;20132;-63
2024/02/03 11:48:04;;;;;;;4.57;1.33;;;13.30;99.90;;;;;;5034468;28;20048;-63
2024/02/03 11:50:31;;;;;;;4.43;1.20;;;13.40;99.90;;;;;;5034314;28;20124;-64
2024/02/03 11:52:59;;;;;;;3.85;0.90;;;13.40;99.90;;;;;;5033987;28;20037;-64
2024/02/03 11:55:26;;;;;;;8.10;1.10;;;13.50;99.90;;;;;;5034188;28;20044;-64
2024/02/03 11:57:52;;;;;;;3.92;1.00;;;13.50;99.90;;;;;;5034198;28;20095;-65
2024/02/03 12:00:20;;;;;;;4.65;1.17;;;13.60;99.90;;;;;;5033543;28;20033;-65
2024/02/03 12:02:47;;;;;;;4.13;1.10;;;13.60;99.90;;;;;;5034250;28;20044;-65
2024/02/03 12:05:13;;;;;;;2.80;1.00;;;13.50;99.90;;;;;;5033189;28;20041;-65
2024/02/03 12:07:41;;;;;;;5.55;1.15;;;13.40;99.90;;;;;;5033908;28;20041;-65
2024/02/03 12:10:08;;;;;;;2.70;1.00;;;13.50;99.90;;;;;;5033035;28;20087;-65
2024/02/03 12:12:35;;;;;;;7.95;1.10;;;13.40;99.90;;;;;;5033589;28;20044;-63
2024/02/03 12:15:02;;;;;;;3.97;1.17;;;13.40;99.90;;;;;;5032399;28;20525;-65
2024/02/03 12:17:29;;;;;;;2.72;0.80;;;13.30;99.90;;;;;;5033781;28;20119;-66
2024/02/03 12:19:57;;;;;;;5.15;1.30;;;13.20;99.90;;;;;;5033078;28;20040;-65
2024/02/03 12:22:24;;;;;;;2.65;1.00;;;13.20;99.90;;;;;;5034009;28;20041;-65
2024/02/03 12:24:51;;;;;;;5.55;1.02;;;13.20;99.90;;;;;;5031632;28;20053;-64
2024/02/03 12:27:20;;;;;;;4.63;1.10;;;13.10;99.90;;;;;;5032620;28;20037;-63
2024/02/03 12:29:48;;;;;;;3.67;1.02;;;13.10;99.90;;;;;;5032630;28;20041;-64
2024/02/03 12:32:16;;;;;;;4.47;0.93;;;13.10;99.90;;;;;;5032949;28;20442;-64
2024/02/03 12:34:42;;;;;;;3.22;0.80;;;13.30;99.90;;;;;;5033277;28;20050;-63
2024/02/03 12:37:09;;;;;;;2.90;0.98;;;13.30;99.90;;;;;;5032825;28;20033;-63
2024/02/03 12:39:37;;;;;;;2.92;1.00;;;13.30;99.90;;;;;;5033672;28;20478;-63
2024/02/03 12:42:04;;;;;;;4.63;1.25;;;13.40;99.90;;;;;;5033560;28;20041;-64
2024/02/03 12:44:31;;;;;;;5.18;1.20;;;13.40;99.90;;;;;;5033476;28;20125;-62
2024/02/03 12:46:57;;;;;;;3.50;0.93;;;13.50;99.90;;;;;;5032576;28;20037;-63